createdAt,value
2018-03-27T00:00:18.376Z,61.50
2018-03-27T00:02:49.380Z,61.50
2018-03-27T00:05:19.972Z,62.40
2018-03-27T00:07:50.984Z,61.60
2018-03-27T00:10:21.812Z,61.80
2018-03-27T00:12:53.016Z,61.90
2018-03-27T00:15:24.219Z,61.90
2018-03-27T00:17:55.177Z,62.10
2018-03-27T00:20:25.893Z,62.30
2018-03-27T00:22:56.157Z,62.50
2018-03-27T00:25:26.902Z,62.90
2018-03-27T00:28:08.387Z,63.10
2018-03-27T00:30:49.824Z,63.20
2018-03-27T00:33:31.709Z,63.50
2018-03-27T00:36:13.284Z,63.70
2018-03-27T00:38:55.081Z,63.90
2018-03-27T00:41:34.335Z,64.20
2018-03-27T00:44:05.910Z,63.90
2018-03-27T00:46:36.821Z,63.90
2018-03-27T00:49:07.944Z,63.90
2018-03-27T00:51:39.268Z,64.20
2018-03-27T00:54:10.791Z,64.60
2018-03-27T00:56:42.833Z,64.70
2018-03-27T00:59:13.983Z,65.20
2018-03-27T01:01:45.550Z,65.10
2018-03-27T01:04:16.368Z,65.40
2018-03-27T01:06:46.905Z,65.30
2018-03-27T01:09:18.227Z,65.60
2018-03-27T01:11:49.195Z,65.90
2018-03-27T01:14:20.151Z,66.10
2018-03-27T01:16:51.165Z,66.30
2018-03-27T01:19:22.218Z,66.60
2018-03-27T01:21:53.263Z,66.80
2018-03-27T01:24:24.827Z,66.90
2018-03-27T01:26:55.659Z,67.00
2018-03-27T01:29:26.850Z,67.10
2018-03-27T01:31:57.962Z,67.10
2018-03-27T01:34:28.869Z,66.90
2018-03-27T01:36:59.864Z,66.90
2018-03-27T01:39:31.073Z,66.90
2018-03-27T01:42:02.258Z,67.00
2018-03-27T01:44:34.454Z,67.00
2018-03-27T01:47:05.929Z,67.20
2018-03-27T01:49:37.070Z,67.20
2018-03-27T01:52:08.186Z,67.30
2018-03-27T01:54:39.513Z,67.40
2018-03-27T01:57:10.446Z,67.30
2018-03-27T01:59:41.223Z,67.20
2018-03-27T02:02:12.988Z,67.00
2018-03-27T02:04:44.564Z,66.90
2018-03-27T02:07:15.941Z,66.60
2018-03-27T02:09:47.304Z,66.80
2018-03-27T02:12:23.218Z,67.10
2018-03-27T02:14:59.367Z,67.20
2018-03-27T02:17:35.318Z,67.30
2018-03-27T02:20:11.489Z,67.30
2018-03-27T02:22:43.250Z,67.20
2018-03-27T02:25:14.880Z,67.10
2018-03-27T02:27:46.091Z,67.10
2018-03-27T02:30:16.871Z,67.20
2018-03-27T02:32:48.046Z,67.20
2018-03-27T02:35:20.460Z,67.20
2018-03-27T02:37:55.763Z,67.30
2018-03-27T02:40:26.712Z,67.20
2018-03-27T02:42:57.924Z,65.70
2018-03-27T02:45:28.892Z,67.80
2018-03-27T02:47:59.985Z,68.00
2018-03-27T02:50:30.724Z,68.00
2018-03-27T02:53:01.778Z,68.40
2018-03-27T02:55:33.886Z,68.60
2018-03-27T02:58:05.027Z,68.50
2018-03-27T03:00:37.156Z,68.60
2018-03-27T03:03:08.701Z,68.60
2018-03-27T03:05:40.092Z,68.60
2018-03-27T03:08:11.842Z,68.60
2018-03-27T03:10:43.477Z,68.70
2018-03-27T03:13:14.532Z,68.60
2018-03-27T03:15:46.173Z,68.50
2018-03-27T03:18:17.968Z,69.00
2018-03-27T03:20:49.585Z,68.30
2018-03-27T03:23:20.600Z,68.20
2018-03-27T03:25:51.721Z,68.20
2018-03-27T03:28:23.131Z,68.10
2018-03-27T03:30:53.997Z,68.10
2018-03-27T03:33:24.978Z,68.30
2018-03-27T03:35:57.060Z,68.30
2018-03-27T03:38:28.501Z,68.30
2018-03-27T03:40:59.727Z,68.30
2018-03-27T03:43:30.698Z,68.40
2018-03-27T03:46:02.525Z,69.00
2018-03-27T03:48:33.791Z,68.30
2018-03-27T03:51:05.191Z,68.40
2018-03-27T03:53:37.696Z,68.40
2018-03-27T03:56:09.670Z,68.80
2018-03-27T03:58:40.762Z,69.00
2018-03-27T04:01:11.679Z,69.10
2018-03-27T04:03:43.115Z,69.30
2018-03-27T04:06:13.964Z,69.40
2018-03-27T04:08:44.934Z,69.50
2018-03-27T04:11:16.699Z,69.80
2018-03-27T04:13:49.659Z,70.00
2018-03-27T04:16:20.716Z,70.20
2018-03-27T04:18:52.001Z,70.30
2018-03-27T04:21:23.466Z,70.40
2018-03-27T04:23:54.799Z,70.40
2018-03-27T04:26:27.704Z,70.30
2018-03-27T04:28:59.550Z,70.30
2018-03-27T04:31:30.783Z,70.40
2018-03-27T04:34:02.121Z,70.30
2018-03-27T04:36:33.924Z,70.10
2018-03-27T04:39:05.960Z,69.90
2018-03-27T04:41:38.155Z,69.90
2018-03-27T04:44:09.527Z,69.90
2018-03-27T04:46:40.475Z,70.20
2018-03-27T04:49:12.489Z,70.20
2018-03-27T04:51:43.981Z,70.10
2018-03-27T04:54:15.391Z,70.30
2018-03-27T04:56:46.679Z,70.40
2018-03-27T04:59:17.541Z,70.30
2018-03-27T05:01:48.851Z,70.50
2018-03-27T05:04:19.556Z,70.90
2018-03-27T05:06:50.955Z,71.00
2018-03-27T05:09:22.751Z,71.40
2018-03-27T05:11:54.190Z,71.40
2018-03-27T05:14:25.486Z,71.40
2018-03-27T05:16:56.828Z,71.40
2018-03-27T05:19:28.133Z,71.60
2018-03-27T05:21:59.891Z,71.60
2018-03-27T05:24:30.749Z,71.70
2018-03-27T05:27:01.439Z,71.80
2018-03-27T05:29:32.553Z,69.50
2018-03-27T05:32:04.271Z,74.20
2018-03-27T05:34:35.267Z,72.20
2018-03-27T05:37:06.887Z,71.00
2018-03-27T05:41:06.856Z,72.30
2018-03-27T05:43:38.086Z,72.20
2018-03-27T05:46:09.918Z,72.30
2018-03-27T05:48:41.015Z,72.20
2018-03-27T05:51:11.613Z,72.10
2018-03-27T05:53:42.384Z,72.10
2018-03-27T05:56:13.033Z,72.00
2018-03-27T05:58:43.990Z,72.00
2018-03-27T06:01:15.147Z,71.90
2018-03-27T06:03:46.903Z,71.90
2018-03-27T06:06:17.378Z,71.90
2018-03-27T06:08:48.502Z,72.00
2018-03-27T06:11:19.781Z,72.20
2018-03-27T06:13:50.695Z,72.10
2018-03-27T06:19:03.678Z,71.60
2018-03-27T06:21:34.472Z,71.30
2018-03-27T06:24:05.591Z,70.90
2018-03-27T06:26:37.278Z,71.40
2018-03-27T06:29:08.633Z,70.70
2018-03-27T06:31:39.631Z,68.20
2018-03-27T06:34:10.075Z,67.90
2018-03-27T06:36:40.896Z,65.00
2018-03-27T06:39:11.979Z,61.50
2018-03-27T06:41:42.415Z,60.00
2018-03-27T06:44:16.064Z,58.70
2018-03-27T06:46:46.964Z,56.20
2018-03-27T06:49:17.677Z,54.50
2018-03-27T06:51:48.361Z,53.60
2018-03-27T06:54:19.673Z,51.00
2018-03-27T06:56:50.210Z,51.00
2018-03-27T06:59:20.848Z,52.70
2018-03-27T07:01:51.647Z,50.70
2018-03-27T07:04:22.241Z,45.80
2018-03-27T07:06:54.330Z,44.90
2018-03-27T07:09:24.465Z,45.10
2018-03-27T07:11:54.340Z,43.40
2018-03-27T07:14:26.367Z,42.60
2018-03-27T07:16:56.699Z,41.70
2018-03-27T07:19:27.427Z,42.50
2018-03-27T07:21:58.690Z,41.00
2018-03-27T07:24:29.277Z,44.50
2018-03-27T07:26:59.853Z,46.10
2018-03-27T07:29:38.762Z,47.70
2018-03-27T07:32:17.174Z,44.70
2018-03-27T07:34:48.458Z,42.60
2018-03-27T07:37:19.173Z,42.40
2018-03-27T07:39:50.214Z,43.40
2018-03-27T07:42:21.271Z,45.00
2018-03-27T07:44:53.233Z,46.90
2018-03-27T07:47:23.969Z,48.10
2018-03-27T07:49:54.921Z,50.10
2018-03-27T07:52:25.438Z,49.40
2018-03-27T07:54:56.211Z,48.00
2018-03-27T07:57:26.845Z,46.30
2018-03-27T08:00:01.449Z,45.40
2018-03-27T08:02:34.505Z,45.80
2018-03-27T08:05:05.336Z,46.30
2018-03-27T08:07:36.299Z,45.50
2018-03-27T08:10:10.087Z,44.90
2018-03-27T08:12:40.027Z,44.40
2018-03-27T08:15:10.685Z,43.90
2018-03-27T08:17:41.702Z,38.40
2018-03-27T08:20:12.184Z,40.10
2018-03-27T08:22:42.407Z,36.80
2018-03-27T08:25:13.000Z,34.70
2018-03-27T08:27:42.780Z,34.70
2018-03-27T08:30:13.407Z,32.90
2018-03-27T08:32:43.305Z,31.40
2018-03-27T08:38:13.269Z,30.50
2018-03-27T08:43:28.774Z,28.60
2018-03-27T08:46:00.045Z,28.90
2018-03-27T08:48:30.297Z,28.90
2018-03-27T08:51:00.426Z,29.30
2018-03-27T08:53:32.255Z,30.80
2018-03-27T08:56:02.873Z,32.60
2018-03-27T08:58:33.444Z,34.10
2018-03-27T09:01:07.308Z,34.70
2018-03-27T09:03:38.338Z,36.50
2018-03-27T09:06:09.553Z,37.50
2018-03-27T09:08:40.223Z,37.70
2018-03-27T09:11:11.182Z,39.00
2018-03-27T09:13:42.090Z,39.00
2018-03-27T09:16:12.584Z,37.70
2018-03-27T09:18:43.419Z,37.80
2018-03-27T09:21:14.084Z,38.20
2018-03-27T09:23:45.023Z,36.10
2018-03-27T09:26:46.434Z,35.50
2018-03-27T09:29:17.703Z,34.10
2018-03-27T09:31:48.953Z,34.40
2018-03-27T09:34:20.787Z,35.10
2018-03-27T09:36:51.566Z,35.90
2018-03-27T09:39:22.674Z,36.70
2018-03-27T09:41:55.434Z,36.30
2018-03-27T09:44:26.731Z,36.40
2018-03-27T09:46:57.036Z,37.00
2018-03-27T09:49:27.664Z,37.60
2018-03-27T09:51:58.031Z,38.30
2018-03-27T09:54:28.454Z,39.30
2018-03-27T09:56:58.780Z,40.30
2018-03-27T09:59:46.917Z,40.80
2018-03-27T10:02:23.020Z,40.50
2018-03-27T10:04:53.789Z,40.20
2018-03-27T10:07:24.122Z,39.00
2018-03-27T10:09:54.866Z,41.20
2018-03-27T10:12:32.590Z,41.90
2018-03-27T10:15:03.562Z,42.40
2018-03-27T10:17:33.832Z,42.60
2018-03-27T10:20:04.215Z,42.70
2018-03-27T10:22:34.741Z,43.40
2018-03-27T10:25:05.583Z,43.10
2018-03-27T10:27:36.065Z,43.40
2018-03-27T10:30:06.788Z,42.80
2018-03-27T10:32:37.238Z,42.10
2018-03-27T10:35:07.811Z,41.00
2018-03-27T10:37:46.876Z,40.70
2018-03-27T10:40:19.405Z,40.80
2018-03-27T10:42:51.148Z,41.10
2018-03-27T10:45:25.716Z,41.40
2018-03-27T10:48:00.307Z,43.20
2018-03-27T10:50:30.912Z,43.50
2018-03-27T10:53:02.382Z,44.20
2018-03-27T10:55:32.775Z,44.70
2018-03-27T10:58:03.307Z,45.30
2018-03-27T11:00:33.909Z,45.30
2018-03-27T11:03:04.705Z,45.10
2018-03-27T11:05:35.085Z,45.10
2018-03-27T11:08:05.404Z,45.30
2018-03-27T11:10:38.356Z,45.30
2018-03-27T11:13:08.756Z,44.50
2018-03-27T11:15:47.006Z,44.50
2018-03-27T11:18:23.192Z,43.10
2018-03-27T11:20:53.890Z,42.70
2018-03-27T11:23:24.149Z,42.50
2018-03-27T11:25:56.654Z,41.60
2018-03-27T11:28:27.267Z,41.70
2018-03-27T11:30:57.947Z,42.00
2018-03-27T11:33:48.741Z,42.30
2018-03-27T11:36:20.426Z,43.00
2018-03-27T11:38:52.299Z,43.10
2018-03-27T11:41:24.049Z,44.30
2018-03-27T11:43:54.568Z,41.60
2018-03-27T11:46:24.636Z,41.60
2018-03-27T11:48:55.037Z,40.60
2018-03-27T11:51:29.111Z,40.00
2018-03-27T11:53:59.681Z,39.00
2018-03-27T11:56:30.432Z,38.10
2018-03-27T11:59:00.912Z,38.00
2018-03-27T12:01:31.510Z,37.20
2018-03-27T12:04:02.125Z,35.90
2018-03-27T12:06:32.565Z,35.90
2018-03-27T12:09:03.102Z,35.30
2018-03-27T12:11:33.645Z,35.30
2018-03-27T12:14:04.088Z,36.50
2018-03-27T12:16:34.860Z,37.00
2018-03-27T12:19:05.537Z,38.10
2018-03-27T12:21:36.066Z,38.60
2018-03-27T12:24:06.588Z,39.40
2018-03-27T12:26:48.883Z,39.00
2018-03-27T12:29:22.264Z,38.00
2018-03-27T12:31:52.967Z,35.60
2018-03-27T12:34:23.505Z,38.80
2018-03-27T12:36:53.625Z,39.70
2018-03-27T12:39:24.246Z,39.70
2018-03-27T12:41:54.792Z,41.30
2018-03-27T12:44:25.334Z,38.30
2018-03-27T12:46:56.287Z,38.70
2018-03-27T12:49:26.719Z,38.70
2018-03-27T12:51:57.611Z,39.00
2018-03-27T12:54:28.126Z,39.40
2018-03-27T12:57:03.486Z,40.20
2018-03-27T12:59:33.844Z,40.80
2018-03-27T13:02:04.409Z,41.50
2018-03-27T13:04:34.968Z,42.70
2018-03-27T13:07:05.451Z,43.30
2018-03-27T13:09:54.928Z,43.30
2018-03-27T13:18:23.439Z,45.90
2018-03-27T13:20:54.072Z,46.30
2018-03-27T13:23:24.817Z,46.60
2018-03-27T13:25:56.379Z,47.00
2018-03-27T13:28:27.262Z,47.80
2018-03-27T13:30:57.820Z,48.30
2018-03-27T13:33:29.451Z,48.80
2018-03-27T13:36:01.022Z,48.00
2018-03-27T13:38:31.520Z,49.40
2018-03-27T13:41:07.208Z,50.00
2018-03-27T13:43:41.884Z,51.80
2018-03-27T13:46:12.589Z,50.40
2018-03-27T13:48:43.214Z,50.40
2018-03-27T13:51:20.598Z,50.50
2018-03-27T13:53:51.441Z,50.60
2018-03-27T13:56:21.849Z,50.50
2018-03-27T13:58:52.834Z,50.50
2018-03-27T14:01:23.452Z,49.60
2018-03-27T14:03:53.919Z,51.20
2018-03-27T14:06:24.441Z,51.00
2018-03-27T14:08:55.238Z,51.30
2018-03-27T14:11:25.655Z,51.20
2018-03-27T14:13:56.368Z,51.50
2018-03-27T14:16:26.793Z,51.90
2018-03-27T14:18:57.586Z,51.60
2018-03-27T14:21:28.032Z,52.20
2018-03-27T14:24:02.199Z,52.40
2018-03-27T14:26:32.378Z,52.10
2018-03-27T14:29:02.954Z,52.10
2018-03-27T14:31:33.439Z,52.30
2018-03-27T14:34:03.581Z,52.30
2018-03-27T14:36:33.962Z,52.30
2018-03-27T14:39:05.945Z,51.80
2018-03-27T14:44:32.072Z,52.10
2018-03-27T14:47:02.515Z,51.40
2018-03-27T14:49:32.970Z,50.70
2018-03-27T14:52:03.376Z,50.20
2018-03-27T14:54:35.317Z,50.50
2018-03-27T14:57:06.114Z,50.00
2018-03-27T14:59:39.708Z,49.90
2018-03-27T15:02:10.203Z,48.80
2018-03-27T15:04:40.748Z,47.30
2018-03-27T15:07:11.299Z,48.10
2018-03-27T15:09:41.417Z,47.80
2018-03-27T15:12:11.847Z,47.90
2018-03-27T15:14:42.375Z,47.90
2018-03-27T15:17:12.803Z,49.30
2018-03-27T15:19:43.634Z,51.10
2018-03-27T15:22:14.157Z,53.20
2018-03-27T15:24:44.875Z,54.80
2018-03-27T15:27:15.643Z,55.90
2018-03-27T15:29:46.473Z,58.30
2018-03-27T15:32:16.936Z,59.10
2018-03-27T15:34:52.090Z,59.20
2018-03-27T15:37:22.640Z,58.90
2018-03-27T15:39:53.227Z,58.90
2018-03-27T15:42:25.739Z,59.00
2018-03-27T15:44:56.396Z,58.80
2018-03-27T15:47:26.814Z,58.20
2018-03-27T15:49:57.770Z,58.40
2018-03-27T15:52:28.267Z,58.80
2018-03-27T15:54:59.045Z,56.70
2018-03-27T15:57:29.493Z,58.70
2018-03-27T16:00:00.307Z,59.00
2018-03-27T16:02:30.795Z,59.30
2018-03-27T16:05:01.251Z,59.40
2018-03-27T16:07:31.598Z,59.80
2018-03-27T16:10:02.012Z,58.80
2018-03-27T16:12:32.414Z,58.60
2018-03-27T16:15:03.862Z,58.80
2018-03-27T16:17:34.625Z,58.50
2018-03-27T16:20:05.508Z,58.70
2018-03-27T16:22:35.975Z,58.90
2018-03-27T16:25:06.444Z,59.10
2018-03-27T16:27:36.834Z,58.90
2018-03-27T16:30:08.088Z,59.00
2018-03-27T16:32:38.542Z,59.10
2018-03-27T16:35:11.688Z,58.90
2018-03-27T16:37:42.144Z,59.10
2018-03-27T16:40:13.494Z,58.70
2018-03-27T16:42:43.921Z,58.70
2018-03-27T16:45:14.538Z,58.80
2018-03-27T16:47:44.975Z,58.80
2018-03-27T16:50:15.826Z,58.90
2018-03-27T16:52:46.418Z,59.30
2018-03-27T16:55:17.172Z,59.40
2018-03-27T16:57:47.644Z,59.40
2018-03-27T17:00:18.135Z,60.00
2018-03-27T17:02:48.572Z,58.50
2018-03-27T17:05:19.085Z,59.60
2018-03-27T17:07:49.497Z,60.10
2018-03-27T17:10:19.572Z,60.40
2018-03-27T17:12:50.068Z,61.10
2018-03-27T17:15:20.665Z,61.50
2018-03-27T17:17:52.267Z,61.90
2018-03-27T17:20:22.983Z,62.30
2018-03-27T17:22:54.041Z,63.10
2018-03-27T17:25:26.921Z,63.70
2018-03-27T17:27:57.651Z,64.40
2018-03-27T17:30:28.859Z,65.30
2018-03-27T17:33:06.132Z,66.20
2018-03-27T17:35:40.924Z,66.60
2018-03-27T17:38:11.476Z,67.40
2018-03-27T17:40:41.891Z,67.80
2018-03-27T17:43:12.520Z,68.30
2018-03-27T17:45:43.356Z,68.50
2018-03-27T18:03:15.966Z,71.40
2018-03-27T18:05:46.757Z,71.80
2018-03-27T18:08:17.654Z,72.20
2018-03-27T18:10:48.632Z,72.70
2018-03-27T18:16:23.405Z,73.10
2018-03-27T18:24:56.430Z,74.20
2018-03-27T18:27:29.666Z,74.60
2018-03-27T18:30:00.090Z,75.00
2018-03-27T18:32:30.555Z,75.60
2018-03-27T18:35:01.330Z,75.90
2018-03-27T18:37:31.810Z,76.30
2018-03-27T18:40:02.566Z,76.80
2018-03-27T18:42:33.173Z,77.30
2018-03-27T18:45:03.631Z,77.40
2018-03-27T18:47:34.168Z,77.50
2018-03-27T18:50:04.641Z,77.70
2018-03-27T18:52:49.456Z,77.90
2018-03-27T18:55:20.187Z,78.00
2018-03-27T18:57:50.652Z,78.00
2018-03-27T19:00:21.145Z,78.00
2018-03-27T19:02:51.669Z,78.10
2018-03-27T19:05:24.098Z,78.10
2018-03-27T19:07:55.145Z,78.40
2018-03-27T19:10:27.102Z,78.50
2018-03-27T19:12:58.317Z,78.50
2018-03-27T19:15:29.626Z,78.60
2018-03-27T19:18:00.707Z,78.70
2018-03-27T19:20:31.631Z,78.80
2018-03-27T19:23:09.898Z,79.10
2018-03-27T19:26:11.334Z,79.50
2018-03-27T19:28:42.168Z,80.10
2018-03-27T19:31:12.941Z,80.20
2018-03-27T19:33:44.539Z,81.60
2018-03-27T19:36:15.785Z,80.10
2018-03-27T19:38:46.785Z,80.00
2018-03-27T19:41:18.218Z,78.80
2018-03-27T19:43:49.281Z,80.00
2018-03-27T19:46:19.996Z,79.80
2018-03-27T19:48:50.869Z,80.10
2018-03-27T19:51:21.625Z,80.30
2018-03-27T19:53:52.422Z,80.30
2018-03-27T19:56:23.335Z,80.00
2018-03-27T19:58:53.972Z,79.90
2018-03-27T20:01:24.872Z,79.90
2018-03-27T20:03:55.883Z,80.00
2018-03-27T20:06:27.006Z,80.10
2018-03-27T20:08:57.609Z,80.30
2018-03-27T20:11:28.441Z,80.30
2018-03-27T20:13:58.968Z,80.30
2018-03-27T20:16:29.551Z,80.50
2018-03-27T20:19:00.010Z,80.50
2018-03-27T20:21:30.475Z,80.60
2018-03-27T20:24:00.974Z,80.70
2018-03-27T20:26:33.283Z,80.70
2018-03-27T20:29:03.822Z,80.70
2018-03-27T20:46:36.897Z,81.20
2018-03-27T20:52:09.317Z,81.60
2018-03-27T20:54:40.228Z,81.90
2018-03-27T21:03:15.211Z,82.10
2018-03-27T21:05:46.584Z,82.40
2018-03-27T21:08:18.583Z,82.50
2018-03-27T21:10:49.987Z,82.50
2018-03-27T21:13:22.065Z,82.30
2018-03-27T21:15:53.039Z,82.70
2018-03-27T21:18:23.827Z,82.60
2018-03-27T21:20:54.309Z,82.90
2018-03-27T21:23:24.704Z,81.90
2018-03-27T21:25:56.040Z,83.40
2018-03-27T21:28:26.809Z,82.50
2018-03-27T21:30:57.508Z,83.50
2018-03-27T21:33:29.195Z,83.70
2018-03-27T21:35:59.839Z,83.60
2018-03-27T21:38:30.337Z,83.60
2018-03-27T21:41:00.744Z,83.60
2018-03-27T21:43:31.151Z,83.80
2018-03-27T21:46:01.837Z,84.00
2018-03-27T21:48:32.469Z,84.20
2018-03-27T21:51:02.890Z,84.60
2018-03-27T21:53:34.454Z,82.20
2018-03-27T21:56:06.013Z,85.20
2018-03-27T21:58:36.657Z,85.40
2018-03-27T22:01:06.697Z,85.70
2018-03-27T22:03:40.639Z,85.70
2018-03-27T22:06:11.380Z,85.80
2018-03-27T22:08:41.969Z,85.80
2018-03-27T22:11:12.508Z,85.90
2018-03-27T22:13:43.930Z,86.00
2018-03-27T22:16:14.509Z,86.00
2018-03-27T22:18:45.950Z,86.00
2018-03-27T22:21:17.499Z,86.20
2018-03-27T22:23:48.324Z,86.00
2018-03-27T22:26:18.849Z,86.20
2018-03-27T22:28:49.543Z,86.20
2018-03-27T22:31:20.021Z,86.20
2018-03-27T22:33:50.774Z,86.10
2018-03-27T22:36:21.314Z,86.20
2018-03-27T22:38:52.601Z,86.40
2018-03-27T22:41:23.184Z,86.40
2018-03-27T22:43:54.280Z,86.40
2018-03-27T22:46:24.912Z,86.30
2018-03-27T22:48:55.409Z,86.40
2018-03-27T22:51:25.532Z,86.50
2018-03-27T22:53:56.232Z,86.50
2018-03-27T22:56:26.858Z,86.50
2018-03-27T22:58:57.379Z,86.60
2018-03-27T23:01:27.876Z,86.60
2018-03-27T23:03:58.839Z,86.50
2018-03-27T23:06:30.126Z,86.60
2018-03-27T23:09:01.135Z,86.50
2018-03-27T23:11:31.774Z,86.50
2018-03-27T23:14:01.929Z,86.50
2018-03-27T23:16:32.459Z,86.50
2018-03-27T23:19:03.178Z,86.70
2018-03-27T23:21:33.691Z,86.70
2018-03-27T23:24:04.574Z,86.70
2018-03-27T23:26:35.178Z,86.70
2018-03-27T23:29:06.420Z,86.70
2018-03-27T23:31:37.014Z,86.80
2018-03-27T23:34:07.604Z,86.80
2018-03-27T23:36:38.654Z,86.80
2018-03-27T23:39:09.648Z,86.80
2018-03-27T23:41:40.490Z,86.80
2018-03-27T23:44:11.255Z,86.90
2018-03-27T23:46:41.939Z,87.00
2018-03-27T23:49:14.146Z,86.90
2018-03-27T23:51:45.712Z,86.90
2018-03-27T23:54:16.414Z,86.90
2018-03-27T23:56:47.330Z,86.90
2018-03-27T23:59:18.145Z,86.80
